Date,TemperatureHighF,TemperatureAvgF,TemperatureLowF,DewpointHighF,DewpointAvgF,DewpointLowF,HumidityHigh,HumidityAvg,HumidityLow,PressureMaxIn,PressureMinIn,WindSpeedMaxMPH,WindSpeedAvgMPH,GustSpeedMaxMPH,PrecipitationSumIn
2013-3-1,40,36,29,34,30,28,100,81,64,29.68,29.50,12,6,23,0.00
2013-3-2,40,36,30,31,29,27,90,75,69,29.67,29.58,14,8,24,0.00
2013-3-3,38,34,30,32,28,25,91,81,74,29.64,29.52,13,8,23,0.00
2013-3-4,37,33,28,29,25,21,85,72,61,29.72,29.55,22,14,35,0.00
2013-3-5,44,36,29,32,28,24,91,73,56,30.07,29.73,13,6,13,0.00
2013-3-6,37,35,32,37,34,31,100,98,82,30.10,29.98,13,7,28,0.27
2013-3-7,34,32,30,34,31,28,100,94,84,30.07,29.95,16,12,29,0.24
2013-3-8,41,35,30,34,30,24,100,85,54,30.16,29.91,14,10,25,0.34
2013-3-9,55,38,20,32,23,18,100,60,26,30.34,30.10,9,4,9,0.00
2013-3-10,46,34,20,33,28,20,100,82,57,30.41,30.20,8,3,8,0.00
2013-3-11,50,41,31,42,35,31,100,81,59,30.28,30.07,12,6,12,0.00
2013-3-12,53,46,42,53,46,42,100,99,89,30.10,29.73,9,4,9,0.11
2013-3-13,49,42,31,38,30,23,92,65,40,29.78,29.66,18,10,28,0.20
2013-3-14,35,30,22,27,18,9,85,59,49,29.80,29.66,22,14,38,0.00
2013-3-15,39,29,19,34,16,8,100,60,33,29.84,29.57,14,10,30,0.00
2013-3-16,38,32,25,30,19,14,85,59,39,29.82,29.61,13,6,23,0.00
2013-3-17,37,29,22,19,14,9,87,56,33,30.22,29.80,21,9,30,0.00
2013-3-18,37,27,16,28,9,4,100,50,26,30.45,30.13,9,4,9,0.03
2013-3-19,34,31,28,34,31,28,100,100,94,30.16,29.58,10,6,24,0.80
2013-3-20,37,30,19,28,21,19,100,73,50,29.81,29.64,17,9,29,0.00
2013-3-21,38,27,16,28,18,14,100,73,41,29.78,29.53,10,2,10,0.00
2013-3-22,39,31,24,25,20,15,94,64,48,29.69,29.55,16,10,29,0.00
2013-3-23,42,35,27,23,22,20,81,60,45,29.74,29.60,23,13,40,0.00
2013-3-24,45,39,33,27,25,23,71,58,48,29.79,29.68,16,9,26,0.00
2013-3-25,42,37,28,31,28,25,87,72,62,29.77,29.46,14,7,29,0.00
2013-3-26,50,40,36,32,28,22,82,62,37,29.77,29.51,14,8,25,0.00
2013-3-27,54,42,32,33,26,22,68,54,37,29.86,29.71,17,9,29,0.00
2013-3-28,50,43,37,36,34,32,95,71,52,29.99,29.82,12,7,12,0.00
2013-3-29,57,48,37,35,34,32,82,60,41,30.03,29.93,13,9,21,0.00
2013-3-30,56,46,35,35,28,22,85,54,29,30.09,29.95,16,7,25,0.00
2013-3-31,59,43,27,42,30,25,91,65,29,30.08,29.68,17,6,30,0.05